Wrenshall, MN (55797)

10:06 PM CDT on August 23, 2016 (GMT -0500)
Esko | | Change Station

Elev 1145 ft 46.68 °N, 92.34 °W | Updated 19 seconds ago

Clear
Clear
71.4 °F
Feels Like 71.4 °F
N
2.0
Wind Variable Wind from SSE
Gusts 2.5 mph

Today
High -- | Low -- °F
--% Chance of Precip.
Yesterday
High -- | Low -- °F
Precip. -- in
Pressure 29.88 in
Visibility 10.0 miles
Clouds Clear
Dew Point 68 °F
Humidity 90%
Rainfall 0.00 in
Snow Depth Not available.
6:18 AM 8:04 PM
Waning Gibbous, 62% visible
METAR KCOQ 240255Z AUTO 16004KT 10SM CLR 22/18 A2988 RMK AO2 LTG DSNT S
Pressure 29.88 in
Visibility 10.0 miles
Clouds Clear
Dew Point 68 °F
Humidity 90%
Rainfall 0.00 in
Snow Depth Not available.
6:18 AM 8:04 PM
Waning Gibbous, 62% visible
METAR KCOQ 240255Z AUTO 16004KT 10SM CLR 22/18 A2988 RMK AO2 LTG DSNT S

10-Day Weather Forecast

Almanac

Astronomy

Aug. 23, 2016 Rise Set
Actual Time
Civil Twilight
Nautical Twilight
Astronomical Twilight
Moon
Length of Visible Light
Length of Day
Tomorrow will be .
, % of the Moon is Illuminated

Today's Extremes

State Highs State Lows

Community

WunderPhotos

Upload Photos

1,934,538 photos uploaded!

WunderBlog® & News

Nearby

Air Quality

  Air Quality AQ Index Pollutant
Not available.

Snow Depth

Station Depth Elevation

Earthquake Activity

City Distance Mag. Time & Date
Minimum magnitude displayed is 2.5.

Coastal Water Temperatures

Place Temperature

Stations

Nearby Weather Stations

Station Location Temp. Windchill Dew Point Humidity Wind Precip. Elev Updated Type
                   

Watches & Warnings

There are currently no watches in effect.